sensor_id;sensor_type;location;lat;lon;timestamp;temperature;humidity
30069;DHT22;16894;49.456;10.644;2022-12-05T00:00:57;4.60;99.90
30069;DHT22;16894;49.456;10.644;2022-12-05T00:03:24;4.60;99.90
30069;DHT22;16894;49.456;10.644;2022-12-05T00:05:50;4.60;99.90
30069;DHT22;16894;49.456;10.644;2022-12-05T00:08:16;4.60;99.90
30069;DHT22;16894;49.456;10.644;2022-12-05T00:10:42;4.60;99.90
30069;DHT22;16894;49.456;10.644;2022-12-05T00:13:08;4.60;99.90
30069;DHT22;16894;49.456;10.644;2022-12-05T00:15:38;4.60;99.90
30069;DHT22;16894;49.456;10.644;2022-12-05T00:18:04;4.60;99.90
30069;DHT22;16894;49.456;10.644;2022-12-05T00:20:30;4.60;99.90
30069;DHT22;16894;49.456;10.644;2022-12-05T00:22:55;4.60;99.90
30069;DHT22;16894;49.456;10.644;2022-12-05T00:25:21;4.60;99.90
30069;DHT22;16894;49.456;10.644;2022-12-05T00:27:46;4.60;99.90
30069;DHT22;16894;49.456;10.644;2022-12-05T00:30:12;4.60;99.90
30069;DHT22;16894;49.456;10.644;2022-12-05T00:32:37;4.60;99.90
30069;DHT22;16894;49.456;10.644;2022-12-05T00:35:03;4.60;99.90
30069;DHT22;16894;49.456;10.644;2022-12-05T00:37:29;4.60;99.90
30069;DHT22;16894;49.456;10.644;2022-12-05T00:40:13;4.70;99.90
30069;DHT22;16894;49.456;10.644;2022-12-05T00:42:54;4.70;99.90
30069;DHT22;16894;49.456;10.644;2022-12-05T00:45:19;4.60;99.90
30069;DHT22;16894;49.456;10.644;2022-12-05T00:47:45;4.50;99.90
30069;DHT22;16894;49.456;10.644;2022-12-05T00:50:11;4.60;99.90
30069;DHT22;16894;49.456;10.644;2022-12-05T00:52:36;4.60;99.90
30069;DHT22;16894;49.456;10.644;2022-12-05T00:55:02;4.50;99.90
30069;DHT22;16894;49.456;10.644;2022-12-05T00:57:28;4.60;99.90
30069;DHT22;16894;49.456;10.644;2022-12-05T00:59:53;4.50;99.90
30069;DHT22;16894;49.456;10.644;2022-12-05T01:02:19;4.60;99.90
30069;DHT22;16894;49.456;10.644;2022-12-05T01:04:44;4.50;99.90
30069;DHT22;16894;49.456;10.644;2022-12-05T01:07:10;4.50;99.90
30069;DHT22;16894;49.456;10.644;2022-12-05T01:09:36;4.60;99.90
30069;DHT22;16894;49.456;10.644;2022-12-05T01:12:01;4.50;99.90
30069;DHT22;16894;49.456;10.644;2022-12-05T01:14:27;4.50;99.90
30069;DHT22;16894;49.456;10.644;2022-12-05T01:16:54;4.50;99.90
30069;DHT22;16894;49.456;10.644;2022-12-05T01:19:28;4.60;99.90
30069;DHT22;16894;49.456;10.644;2022-12-05T01:21:54;4.50;99.90
30069;DHT22;16894;49.456;10.644;2022-12-05T01:24:21;4.50;99.90
30069;DHT22;16894;49.456;10.644;2022-12-05T01:26:47;4.60;99.90
30069;DHT22;16894;49.456;10.644;2022-12-05T01:29:16;4.50;99.90
30069;DHT22;16894;49.456;10.644;2022-12-05T01:31:42;4.60;99.90
30069;DHT22;16894;49.456;10.644;2022-12-05T01:34:11;4.50;99.90
30069;DHT22;16894;49.456;10.644;2022-12-05T01:36:37;4.60;99.90
30069;DHT22;16894;49.456;10.644;2022-12-05T01:39:04;4.60;99.90
30069;DHT22;16894;49.456;10.644;2022-12-05T01:41:31;4.60;99.90
30069;DHT22;16894;49.456;10.644;2022-12-05T01:46:53;4.50;99.90
30069;DHT22;16894;49.456;10.644;2022-12-05T01:49:45;4.50;99.90
30069;DHT22;16894;49.456;10.644;2022-12-05T01:52:19;4.50;99.90
30069;DHT22;16894;49.456;10.644;2022-12-05T01:54:47;4.50;99.90
30069;DHT22;16894;49.456;10.644;2022-12-05T01:57:14;4.40;99.90
30069;DHT22;16894;49.456;10.644;2022-12-05T01:59:49;4.40;99.90
30069;DHT22;16894;49.456;10.644;2022-12-05T02:02:16;4.40;99.90
30069;DHT22;16894;49.456;10.644;2022-12-05T02:05:14;4.40;99.90
30069;DHT22;16894;49.456;10.644;2022-12-05T02:07:41;4.50;99.90
30069;DHT22;16894;49.456;10.644;2022-12-05T02:10:08;4.50;99.90
30069;DHT22;16894;49.456;10.644;2022-12-05T02:12:34;4.50;99.90
30069;DHT22;16894;49.456;10.644;2022-12-05T02:15:06;4.50;99.90
30069;DHT22;16894;49.456;10.644;2022-12-05T02:17:50;4.50;99.90
30069;DHT22;16894;49.456;10.644;2022-12-05T02:25:51;4.50;99.90
30069;DHT22;16894;49.456;10.644;2022-12-05T02:28:43;4.50;99.90
30069;DHT22;16894;49.456;10.644;2022-12-05T02:31:31;4.50;99.90
30069;DHT22;16894;49.456;10.644;2022-12-05T02:34:15;4.60;99.90
30069;DHT22;16894;49.456;10.644;2022-12-05T02:37:00;4.60;99.90
30069;DHT22;16894;49.456;10.644;2022-12-05T02:39:52;4.60;99.90
30069;DHT22;16894;49.456;10.644;2022-12-05T02:42:39;4.60;99.90
30069;DHT22;16894;49.456;10.644;2022-12-05T02:45:12;4.60;99.90
30069;DHT22;16894;49.456;10.644;2022-12-05T02:47:45;4.50;99.90
30069;DHT22;16894;49.456;10.644;2022-12-05T02:50:14;4.50;99.90
30069;DHT22;16894;49.456;10.644;2022-12-05T02:52:42;4.50;99.90
30069;DHT22;16894;49.456;10.644;2022-12-05T02:55:30;4.40;99.90
30069;DHT22;16894;49.456;10.644;2022-12-05T02:57:59;4.40;99.90
30069;DHT22;16894;49.456;10.644;2022-12-05T03:00:26;4.40;99.90
30069;DHT22;16894;49.456;10.644;2022-12-05T03:02:57;4.40;99.90
30069;DHT22;16894;49.456;10.644;2022-12-05T03:05:36;4.40;99.90
30069;DHT22;16894;49.456;10.644;2022-12-05T03:08:09;4.40;99.90
30069;DHT22;16894;49.456;10.644;2022-12-05T03:10:38;4.40;99.90
30069;DHT22;16894;49.456;10.644;2022-12-05T03:13:10;4.40;99.90
30069;DHT22;16894;49.456;10.644;2022-12-05T03:16:00;4.40;99.90
30069;DHT22;16894;49.456;10.644;2022-12-05T03:18:38;4.40;99.90
30069;DHT22;16894;49.456;10.644;2022-12-05T03:23:42;4.40;99.90
30069;DHT22;16894;49.456;10.644;2022-12-05T03:26:43;4.30;99.90
30069;DHT22;16894;49.456;10.644;2022-12-05T03:29:39;4.30;99.90
30069;DHT22;16894;49.456;10.644;2022-12-05T03:35:05;4.30;99.90
30069;DHT22;16894;49.456;10.644;2022-12-05T03:40:22;4.30;99.90
30069;DHT22;16894;49.456;10.644;2022-12-05T03:43:21;4.30;99.90
30069;DHT22;16894;49.456;10.644;2022-12-05T03:45:57;4.30;99.90
30069;DHT22;16894;49.456;10.644;2022-12-05T03:48:38;4.30;99.90
30069;DHT22;16894;49.456;10.644;2022-12-05T03:51:07;4.30;99.90
30069;DHT22;16894;49.456;10.644;2022-12-05T03:53:40;4.30;99.90
30069;DHT22;16894;49.456;10.644;2022-12-05T03:56:12;4.30;99.90
30069;DHT22;16894;49.456;10.644;2022-12-05T03:58:45;4.30;99.90
30069;DHT22;16894;49.456;10.644;2022-12-05T04:01:33;4.20;99.90
30069;DHT22;16894;49.456;10.644;2022-12-05T04:04:04;4.20;99.90
30069;DHT22;16894;49.456;10.644;2022-12-05T04:06:35;4.20;99.90
30069;DHT22;16894;49.456;10.644;2022-12-05T04:11:32;4.10;99.90
30069;DHT22;16894;49.456;10.644;2022-12-05T04:14:06;4.10;99.90
30069;DHT22;16894;49.456;10.644;2022-12-05T04:16:39;4.10;99.90
30069;DHT22;16894;49.456;10.644;2022-12-05T04:19:58;4.10;99.90
30069;DHT22;16894;49.456;10.644;2022-12-05T04:22:43;4.10;99.90
30069;DHT22;16894;49.456;10.644;2022-12-05T04:25:11;4.10;99.90
30069;DHT22;16894;49.456;10.644;2022-12-05T04:30:36;4.10;99.90
30069;DHT22;16894;49.456;10.644;2022-12-05T04:33:15;4.00;99.90
30069;DHT22;16894;49.456;10.644;2022-12-05T04:38:40;3.90;99.90
30069;DHT22;16894;49.456;10.644;2022-12-05T04:41:10;3.80;99.90
30069;DHT22;16894;49.456;10.644;2022-12-05T04:43:40;3.80;99.90
30069;DHT22;16894;49.456;10.644;2022-12-05T04:46:08;3.80;99.90
30069;DHT22;16894;49.456;10.644;2022-12-05T04:48:37;3.80;99.90
30069;DHT22;16894;49.456;10.644;2022-12-05T04:51:06;3.80;99.90
30069;DHT22;16894;49.456;10.644;2022-12-05T04:53:33;3.80;99.90
30069;DHT22;16894;49.456;10.644;2022-12-05T04:56:01;3.80;99.90
30069;DHT22;16894;49.456;10.644;2022-12-05T04:58:27;3.70;99.90
30069;DHT22;16894;49.456;10.644;2022-12-05T05:03:43;3.70;99.90
30069;DHT22;16894;49.456;10.644;2022-12-05T05:06:11;3.70;99.90
30069;DHT22;16894;49.456;10.644;2022-12-05T05:08:50;3.70;99.90
30069;DHT22;16894;49.456;10.644;2022-12-05T05:11:19;3.70;99.90
30069;DHT22;16894;49.456;10.644;2022-12-05T05:13:46;3.70;99.90
30069;DHT22;16894;49.456;10.644;2022-12-05T05:16:16;3.70;99.90
30069;DHT22;16894;49.456;10.644;2022-12-05T05:18:46;3.60;99.90
30069;DHT22;16894;49.456;10.644;2022-12-05T05:23:51;3.60;99.90
30069;DHT22;16894;49.456;10.644;2022-12-05T05:26:17;3.60;99.90
30069;DHT22;16894;49.456;10.644;2022-12-05T05:28:44;3.60;99.90
30069;DHT22;16894;49.456;10.644;2022-12-05T05:31:10;3.60;99.90
30069;DHT22;16894;49.456;10.644;2022-12-05T05:33:35;3.60;99.90
30069;DHT22;16894;49.456;10.644;2022-12-05T05:36:06;3.60;99.90
30069;DHT22;16894;49.456;10.644;2022-12-05T05:38:36;3.60;99.90
30069;DHT22;16894;49.456;10.644;2022-12-05T05:41:03;3.50;99.90
30069;DHT22;16894;49.456;10.644;2022-12-05T05:43:29;3.50;99.90
30069;DHT22;16894;49.456;10.644;2022-12-05T05:45:54;3.50;99.90
30069;DHT22;16894;49.456;10.644;2022-12-05T05:48:20;3.50;99.90
30069;DHT22;16894;49.456;10.644;2022-12-05T05:50:46;3.40;99.90
30069;DHT22;16894;49.456;10.644;2022-12-05T05:53:11;3.50;99.90
30069;DHT22;16894;49.456;10.644;2022-12-05T05:55:40;3.50;99.90
30069;DHT22;16894;49.456;10.644;2022-12-05T05:58:07;3.40;99.90
30069;DHT22;16894;49.456;10.644;2022-12-05T06:00:32;3.40;99.90
30069;DHT22;16894;49.456;10.644;2022-12-05T06:02:58;3.40;99.90
30069;DHT22;16894;49.456;10.644;2022-12-05T06:05:24;3.40;99.90
30069;DHT22;16894;49.456;10.644;2022-12-05T06:07:51;3.40;99.90
30069;DHT22;16894;49.456;10.644;2022-12-05T06:10:17;3.40;99.90
30069;DHT22;16894;49.456;10.644;2022-12-05T06:12:42;3.40;99.90
30069;DHT22;16894;49.456;10.644;2022-12-05T06:15:08;3.50;99.90
30069;DHT22;16894;49.456;10.644;2022-12-05T06:17:34;3.40;99.90
30069;DHT22;16894;49.456;10.644;2022-12-05T06:20:00;3.40;99.90
30069;DHT22;16894;49.456;10.644;2022-12-05T06:22:25;3.40;99.90
30069;DHT22;16894;49.456;10.644;2022-12-05T06:24:51;3.40;99.90
30069;DHT22;16894;49.456;10.644;2022-12-05T06:27:16;3.40;99.90
30069;DHT22;16894;49.456;10.644;2022-12-05T06:29:42;3.40;99.90
30069;DHT22;16894;49.456;10.644;2022-12-05T06:32:08;3.30;99.90
30069;DHT22;16894;49.456;10.644;2022-12-05T06:34:33;3.40;99.90
30069;DHT22;16894;49.456;10.644;2022-12-05T06:37:00;3.30;99.90
30069;DHT22;16894;49.456;10.644;2022-12-05T06:39:26;3.30;99.90
30069;DHT22;16894;49.456;10.644;2022-12-05T06:41:52;3.30;99.90
30069;DHT22;16894;49.456;10.644;2022-12-05T06:44:18;3.30;99.90
30069;DHT22;16894;49.456;10.644;2022-12-05T06:46:44;3.30;99.90
30069;DHT22;16894;49.456;10.644;2022-12-05T06:49:10;3.30;99.90
30069;DHT22;16894;49.456;10.644;2022-12-05T06:51:36;3.30;99.90
30069;DHT22;16894;49.456;10.644;2022-12-05T06:54:01;3.30;99.90
30069;DHT22;16894;49.456;10.644;2022-12-05T06:56:27;3.30;99.90
30069;DHT22;16894;49.456;10.644;2022-12-05T06:58:54;3.30;99.90
30069;DHT22;16894;49.456;10.644;2022-12-05T07:01:22;3.30;99.90
30069;DHT22;16894;49.456;10.644;2022-12-05T07:04:22;3.30;99.90
30069;DHT22;16894;49.456;10.644;2022-12-05T07:06:49;3.30;99.90
30069;DHT22;16894;49.456;10.644;2022-12-05T07:09:16;3.30;99.90
30069;DHT22;16894;49.456;10.644;2022-12-05T07:11:46;3.30;99.90
30069;DHT22;16894;49.456;10.644;2022-12-05T07:14:12;3.30;99.90
30069;DHT22;16894;49.456;10.644;2022-12-05T07:16:38;3.30;99.90
30069;DHT22;16894;49.456;10.644;2022-12-05T07:19:04;3.30;99.90
30069;DHT22;16894;49.456;10.644;2022-12-05T07:21:29;3.30;99.90
30069;DHT22;16894;49.456;10.644;2022-12-05T07:23:55;3.30;99.90
30069;DHT22;16894;49.456;10.644;2022-12-05T07:26:22;3.30;99.90
30069;DHT22;16894;49.456;10.644;2022-12-05T07:28:49;3.30;99.90
30069;DHT22;16894;49.456;10.644;2022-12-05T07:31:18;3.30;99.90
30069;DHT22;16894;49.456;10.644;2022-12-05T07:33:44;3.30;99.90
30069;DHT22;16894;49.456;10.644;2022-12-05T07:36:13;3.30;99.90
30069;DHT22;16894;49.456;10.644;2022-12-05T07:38:40;3.40;99.90
30069;DHT22;16894;49.456;10.644;2022-12-05T07:41:26;3.30;99.90
30069;DHT22;16894;49.456;10.644;2022-12-05T07:43:54;3.40;99.90
30069;DHT22;16894;49.456;10.644;2022-12-05T07:46:21;3.40;99.90
30069;DHT22;16894;49.456;10.644;2022-12-05T07:48:47;3.40;99.90
30069;DHT22;16894;49.456;10.644;2022-12-05T07:51:13;3.40;99.90
30069;DHT22;16894;49.456;10.644;2022-12-05T07:53:39;3.50;99.90
30069;DHT22;16894;49.456;10.644;2022-12-05T07:56:07;3.60;99.90
30069;DHT22;16894;49.456;10.644;2022-12-05T07:58:34;3.60;99.90
30069;DHT22;16894;49.456;10.644;2022-12-05T08:01:10;3.70;99.90
30069;DHT22;16894;49.456;10.644;2022-12-05T08:03:36;3.70;99.90
30069;DHT22;16894;49.456;10.644;2022-12-05T08:06:04;3.70;99.90
30069;DHT22;16894;49.456;10.644;2022-12-05T08:08:30;3.80;99.90
30069;DHT22;16894;49.456;10.644;2022-12-05T08:10:55;3.80;99.90
30069;DHT22;16894;49.456;10.644;2022-12-05T08:13:21;3.80;99.90
30069;DHT22;16894;49.456;10.644;2022-12-05T08:15:47;3.80;99.90
30069;DHT22;16894;49.456;10.644;2022-12-05T08:18:12;3.70;99.90
30069;DHT22;16894;49.456;10.644;2022-12-05T08:20:38;3.70;99.90
30069;DHT22;16894;49.456;10.644;2022-12-05T08:23:03;3.80;99.90
30069;DHT22;16894;49.456;10.644;2022-12-05T08:25:29;3.70;99.90
30069;DHT22;16894;49.456;10.644;2022-12-05T08:27:54;3.80;99.90
30069;DHT22;16894;49.456;10.644;2022-12-05T08:30:20;3.80;99.90
30069;DHT22;16894;49.456;10.644;2022-12-05T08:32:46;3.90;99.90
30069;DHT22;16894;49.456;10.644;2022-12-05T08:35:11;4.00;99.90
30069;DHT22;16894;49.456;10.644;2022-12-05T08:37:37;4.00;99.90
30069;DHT22;16894;49.456;10.644;2022-12-05T08:40:04;4.00;99.90
30069;DHT22;16894;49.456;10.644;2022-12-05T08:42:29;4.10;99.90
30069;DHT22;16894;49.456;10.644;2022-12-05T08:44:55;4.10;99.90
30069;DHT22;16894;49.456;10.644;2022-12-05T08:47:21;4.00;99.90
30069;DHT22;16894;49.456;10.644;2022-12-05T08:49:46;4.00;99.90
30069;DHT22;16894;49.456;10.644;2022-12-05T08:52:31;4.10;99.90
30069;DHT22;16894;49.456;10.644;2022-12-05T08:54:56;4.10;99.90
30069;DHT22;16894;49.456;10.644;2022-12-05T08:57:22;4.10;99.90
30069;DHT22;16894;49.456;10.644;2022-12-05T08:59:47;4.20;99.90
30069;DHT22;16894;49.456;10.644;2022-12-05T09:02:13;4.20;99.90
30069;DHT22;16894;49.456;10.644;2022-12-05T09:04:39;4.20;99.90
30069;DHT22;16894;49.456;10.644;2022-12-05T09:07:23;4.20;99.90
30069;DHT22;16894;49.456;10.644;2022-12-05T09:09:49;4.30;99.90
30069;DHT22;16894;49.456;10.644;2022-12-05T09:12:14;4.30;99.90
30069;DHT22;16894;49.456;10.644;2022-12-05T09:14:40;4.20;99.90
30069;DHT22;16894;49.456;10.644;2022-12-05T09:17:06;4.20;99.90
30069;DHT22;16894;49.456;10.644;2022-12-05T09:19:32;4.20;99.90
30069;DHT22;16894;49.456;10.644;2022-12-05T09:21:57;4.20;99.90
30069;DHT22;16894;49.456;10.644;2022-12-05T09:24:23;4.20;99.90
30069;DHT22;16894;49.456;10.644;2022-12-05T09:26:49;4.20;99.90
30069;DHT22;16894;49.456;10.644;2022-12-05T09:29:15;4.20;99.90
30069;DHT22;16894;49.456;10.644;2022-12-05T09:31:41;4.30;99.90
30069;DHT22;16894;49.456;10.644;2022-12-05T09:34:07;4.30;99.90
30069;DHT22;16894;49.456;10.644;2022-12-05T09:36:33;4.30;99.90
30069;DHT22;16894;49.456;10.644;2022-12-05T09:39:02;4.30;99.90
30069;DHT22;16894;49.456;10.644;2022-12-05T09:42:10;4.30;99.90
30069;DHT22;16894;49.456;10.644;2022-12-05T09:44:57;4.30;99.90
30069;DHT22;16894;49.456;10.644;2022-12-05T09:52:42;4.30;99.90
30069;DHT22;16894;49.456;10.644;2022-12-05T09:55:13;4.30;99.90
30069;DHT22;16894;49.456;10.644;2022-12-05T09:57:47;4.30;99.90
30069;DHT22;16894;49.456;10.644;2022-12-05T10:00:14;4.40;99.90
30069;DHT22;16894;49.456;10.644;2022-12-05T10:05:44;4.30;99.90
30069;DHT22;16894;49.456;10.644;2022-12-05T10:08:28;4.30;99.90
30069;DHT22;16894;49.456;10.644;2022-12-05T10:11:23;4.40;99.90
30069;DHT22;16894;49.456;10.644;2022-12-05T10:16:46;4.30;99.90
30069;DHT22;16894;49.456;10.644;2022-12-05T10:19:29;4.30;99.90
30069;DHT22;16894;49.456;10.644;2022-12-05T10:22:14;4.20;99.90
30069;DHT22;16894;49.456;10.644;2022-12-05T10:24:44;4.30;99.90
30069;DHT22;16894;49.456;10.644;2022-12-05T10:27:18;4.30;99.90
30069;DHT22;16894;49.456;10.644;2022-12-05T10:29:49;4.20;99.90
30069;DHT22;16894;49.456;10.644;2022-12-05T10:32:22;4.20;99.90
30069;DHT22;16894;49.456;10.644;2022-12-05T10:34:54;4.30;99.90
30069;DHT22;16894;49.456;10.644;2022-12-05T10:37:24;4.30;99.90
30069;DHT22;16894;49.456;10.644;2022-12-05T10:39:51;4.30;99.90
30069;DHT22;16894;49.456;10.644;2022-12-05T10:42:28;4.30;99.90
30069;DHT22;16894;49.456;10.644;2022-12-05T10:45:04;4.30;99.90
30069;DHT22;16894;49.456;10.644;2022-12-05T10:47:30;4.30;99.90
30069;DHT22;16894;49.456;10.644;2022-12-05T10:50:01;4.30;99.90
30069;DHT22;16894;49.456;10.644;2022-12-05T10:52:29;4.30;99.90
30069;DHT22;16894;49.456;10.644;2022-12-05T10:55:02;4.20;99.90
30069;DHT22;16894;49.456;10.644;2022-12-05T10:57:28;4.30;99.90
30069;DHT22;16894;49.456;10.644;2022-12-05T10:59:55;4.30;99.90
30069;DHT22;16894;49.456;10.644;2022-12-05T11:02:25;4.40;99.90
30069;DHT22;16894;49.456;10.644;2022-12-05T11:04:52;4.30;99.90
30069;DHT22;16894;49.456;10.644;2022-12-05T11:10:00;4.20;99.90
30069;DHT22;16894;49.456;10.644;2022-12-05T11:15:02;4.20;99.90
30069;DHT22;16894;49.456;10.644;2022-12-05T11:17:34;4.20;99.90
30069;DHT22;16894;49.456;10.644;2022-12-05T11:20:00;4.30;99.90
30069;DHT22;16894;49.456;10.644;2022-12-05T11:22:30;4.40;99.90
30069;DHT22;16894;49.456;10.644;2022-12-05T11:24:56;4.40;99.90
30069;DHT22;16894;49.456;10.644;2022-12-05T11:27:30;4.40;99.90
30069;DHT22;16894;49.456;10.644;2022-12-05T11:30:01;4.50;99.90
30069;DHT22;16894;49.456;10.644;2022-12-05T11:32:32;4.50;99.90
30069;DHT22;16894;49.456;10.644;2022-12-05T11:47:08;4.60;99.90
30069;DHT22;16894;49.456;10.644;2022-12-05T11:52:35;4.80;99.90
30069;DHT22;16894;49.456;10.644;2022-12-05T11:55:27;4.90;99.90
30069;DHT22;16894;49.456;10.644;2022-12-05T12:01:15;4.80;99.90
30069;DHT22;16894;49.456;10.644;2022-12-05T12:14:44;5.00;99.90
30069;DHT22;16894;49.456;10.644;2022-12-05T12:20:13;5.10;99.90
30069;DHT22;16894;49.456;10.644;2022-12-05T12:36:48;5.00;99.90
30069;DHT22;16894;49.456;10.644;2022-12-05T12:45:25;5.10;99.90
30069;DHT22;16894;49.456;10.644;2022-12-05T12:50:32;5.00;99.90
30069;DHT22;16894;49.456;10.644;2022-12-05T13:01:59;5.00;99.90
30069;DHT22;16894;49.456;10.644;2022-12-05T13:04:35;5.00;99.90
30069;DHT22;16894;49.456;10.644;2022-12-05T13:07:08;5.00;99.90
30069;DHT22;16894;49.456;10.644;2022-12-05T13:12:11;5.00;99.90
30069;DHT22;16894;49.456;10.644;2022-12-05T13:14:39;5.00;99.90
30069;DHT22;16894;49.456;10.644;2022-12-05T13:17:06;5.00;99.90
30069;DHT22;16894;49.456;10.644;2022-12-05T13:19:46;5.00;99.90
30069;DHT22;16894;49.456;10.644;2022-12-05T13:22:13;5.00;99.90
30069;DHT22;16894;49.456;10.644;2022-12-05T13:24:39;5.00;99.90
30069;DHT22;16894;49.456;10.644;2022-12-05T13:27:12;4.90;99.90
30069;DHT22;16894;49.456;10.644;2022-12-05T13:29:59;5.00;99.90
30069;DHT22;16894;49.456;10.644;2022-12-05T13:32:32;5.00;99.90
30069;DHT22;16894;49.456;10.644;2022-12-05T13:35:18;5.00;99.90
30069;DHT22;16894;49.456;10.644;2022-12-05T13:38:04;4.90;99.90
30069;DHT22;16894;49.456;10.644;2022-12-05T13:40:52;4.90;99.90
30069;DHT22;16894;49.456;10.644;2022-12-05T13:43:41;4.90;99.90
30069;DHT22;16894;49.456;10.644;2022-12-05T13:46:11;4.90;99.90
30069;DHT22;16894;49.456;10.644;2022-12-05T13:48:46;4.90;99.90
30069;DHT22;16894;49.456;10.644;2022-12-05T13:51:36;4.90;99.90
30069;DHT22;16894;49.456;10.644;2022-12-05T13:54:16;4.90;99.90
30069;DHT22;16894;49.456;10.644;2022-12-05T13:56:53;4.90;99.90
30069;DHT22;16894;49.456;10.644;2022-12-05T14:05:39;4.80;99.90
30069;DHT22;16894;49.456;10.644;2022-12-05T14:15:53;4.90;99.90
30069;DHT22;16894;49.456;10.644;2022-12-05T14:24:25;4.80;99.90
30069;DHT22;16894;49.456;10.644;2022-12-05T14:27:09;4.80;99.90
30069;DHT22;16894;49.456;10.644;2022-12-05T14:32:39;4.90;99.90
30069;DHT22;16894;49.456;10.644;2022-12-05T14:35:15;4.90;99.90
30069;DHT22;16894;49.456;10.644;2022-12-05T14:38:00;4.80;99.90
30069;DHT22;16894;49.456;10.644;2022-12-05T14:40:41;4.80;99.90
30069;DHT22;16894;49.456;10.644;2022-12-05T14:43:40;4.70;99.90
30069;DHT22;16894;49.456;10.644;2022-12-05T14:46:23;4.80;99.90
30069;DHT22;16894;49.456;10.644;2022-12-05T14:48:49;4.80;99.90
30069;DHT22;16894;49.456;10.644;2022-12-05T14:54:06;4.70;99.90
30069;DHT22;16894;49.456;10.644;2022-12-05T14:56:43;4.70;99.90
30069;DHT22;16894;49.456;10.644;2022-12-05T15:01:53;4.70;99.90
30069;DHT22;16894;49.456;10.644;2022-12-05T15:04:46;4.60;99.90
30069;DHT22;16894;49.456;10.644;2022-12-05T15:07:18;4.60;99.90
30069;DHT22;16894;49.456;10.644;2022-12-05T15:09:59;4.50;99.90
30069;DHT22;16894;49.456;10.644;2022-12-05T15:12:27;4.50;99.90
30069;DHT22;16894;49.456;10.644;2022-12-05T15:15:09;4.50;99.90
30069;DHT22;16894;49.456;10.644;2022-12-05T15:17:48;4.40;99.90
30069;DHT22;16894;49.456;10.644;2022-12-05T15:22:43;4.30;99.90
30069;DHT22;16894;49.456;10.644;2022-12-05T15:25:21;4.30;99.90
30069;DHT22;16894;49.456;10.644;2022-12-05T15:28:05;4.30;99.90
30069;DHT22;16894;49.456;10.644;2022-12-05T15:30:41;4.20;99.90
30069;DHT22;16894;49.456;10.644;2022-12-05T15:33:11;4.30;99.90
30069;DHT22;16894;49.456;10.644;2022-12-05T15:35:37;4.30;99.90
30069;DHT22;16894;49.456;10.644;2022-12-05T15:38:17;4.30;99.90
30069;DHT22;16894;49.456;10.644;2022-12-05T15:40:45;4.20;99.90
30069;DHT22;16894;49.456;10.644;2022-12-05T15:43:29;4.20;99.90
30069;DHT22;16894;49.456;10.644;2022-12-05T15:46:17;4.20;99.90
30069;DHT22;16894;49.456;10.644;2022-12-05T15:48:55;4.20;99.90
30069;DHT22;16894;49.456;10.644;2022-12-05T15:51:32;4.20;99.90
30069;DHT22;16894;49.456;10.644;2022-12-05T15:56:37;4.20;99.90
30069;DHT22;16894;49.456;10.644;2022-12-05T16:01:43;4.20;99.90
30069;DHT22;16894;49.456;10.644;2022-12-05T16:06:51;4.20;99.90
30069;DHT22;16894;49.456;10.644;2022-12-05T16:09:23;4.20;99.90
30069;DHT22;16894;49.456;10.644;2022-12-05T16:12:01;4.20;99.90
30069;DHT22;16894;49.456;10.644;2022-12-05T16:14:36;4.20;99.90
30069;DHT22;16894;49.456;10.644;2022-12-05T16:17:04;4.20;99.90
30069;DHT22;16894;49.456;10.644;2022-12-05T16:19:31;4.20;99.90
30069;DHT22;16894;49.456;10.644;2022-12-05T16:25:01;4.20;99.90
30069;DHT22;16894;49.456;10.644;2022-12-05T16:27:35;4.10;99.90
30069;DHT22;16894;49.456;10.644;2022-12-05T16:30:18;4.10;99.90
30069;DHT22;16894;49.456;10.644;2022-12-05T16:32:47;4.10;99.90
30069;DHT22;16894;49.456;10.644;2022-12-05T16:40:36;4.10;99.90
30069;DHT22;16894;49.456;10.644;2022-12-05T16:43:04;4.10;99.90
30069;DHT22;16894;49.456;10.644;2022-12-05T16:45:42;4.10;99.90
30069;DHT22;16894;49.456;10.644;2022-12-05T16:50:41;4.10;99.90
30069;DHT22;16894;49.456;10.644;2022-12-05T16:55:32;4.10;99.90
30069;DHT22;16894;49.456;10.644;2022-12-05T16:58:01;4.10;99.90
30069;DHT22;16894;49.456;10.644;2022-12-05T17:00:26;4.10;99.90
30069;DHT22;16894;49.456;10.644;2022-12-05T17:02:52;4.10;99.90
30069;DHT22;16894;49.456;10.644;2022-12-05T17:05:18;4.00;99.90
30069;DHT22;16894;49.456;10.644;2022-12-05T17:07:43;4.00;99.90
30069;DHT22;16894;49.456;10.644;2022-12-05T17:10:09;4.00;99.90
30069;DHT22;16894;49.456;10.644;2022-12-05T17:12:34;4.00;99.90
30069;DHT22;16894;49.456;10.644;2022-12-05T17:15:00;4.00;99.90
30069;DHT22;16894;49.456;10.644;2022-12-05T17:17:26;4.00;99.90
30069;DHT22;16894;49.456;10.644;2022-12-05T17:19:51;4.00;99.90
30069;DHT22;16894;49.456;10.644;2022-12-05T17:22:17;4.00;99.90
30069;DHT22;16894;49.456;10.644;2022-12-05T17:24:42;4.00;99.90
30069;DHT22;16894;49.456;10.644;2022-12-05T17:27:10;3.90;99.90
30069;DHT22;16894;49.456;10.644;2022-12-05T17:29:36;3.90;99.90
30069;DHT22;16894;49.456;10.644;2022-12-05T17:32:03;4.00;99.90
30069;DHT22;16894;49.456;10.644;2022-12-05T17:34:29;3.90;99.90
30069;DHT22;16894;49.456;10.644;2022-12-05T17:36:55;3.90;99.90
30069;DHT22;16894;49.456;10.644;2022-12-05T17:39:21;3.80;99.90
30069;DHT22;16894;49.456;10.644;2022-12-05T17:41:46;3.80;99.90
30069;DHT22;16894;49.456;10.644;2022-12-05T17:44:13;3.90;99.90
30069;DHT22;16894;49.456;10.644;2022-12-05T17:46:42;3.90;99.90
30069;DHT22;16894;49.456;10.644;2022-12-05T17:49:12;3.90;99.90
30069;DHT22;16894;49.456;10.644;2022-12-05T17:51:39;3.90;99.90
30069;DHT22;16894;49.456;10.644;2022-12-05T17:54:05;4.00;99.90
30069;DHT22;16894;49.456;10.644;2022-12-05T17:56:31;3.90;99.90
30069;DHT22;16894;49.456;10.644;2022-12-05T17:58:56;4.00;99.90
30069;DHT22;16894;49.456;10.644;2022-12-05T18:01:22;3.90;99.90
30069;DHT22;16894;49.456;10.644;2022-12-05T18:03:48;3.90;99.90
30069;DHT22;16894;49.456;10.644;2022-12-05T18:06:13;4.00;99.90
30069;DHT22;16894;49.456;10.644;2022-12-05T18:08:39;3.90;99.90
30069;DHT22;16894;49.456;10.644;2022-12-05T18:11:08;3.90;99.90
30069;DHT22;16894;49.456;10.644;2022-12-05T18:13:34;3.90;99.90
30069;DHT22;16894;49.456;10.644;2022-12-05T18:16:00;3.90;99.90
30069;DHT22;16894;49.456;10.644;2022-12-05T18:18:26;3.80;99.90
30069;DHT22;16894;49.456;10.644;2022-12-05T18:21:03;3.80;99.90
30069;DHT22;16894;49.456;10.644;2022-12-05T18:23:29;3.80;99.90
30069;DHT22;16894;49.456;10.644;2022-12-05T18:25:58;3.90;99.90
30069;DHT22;16894;49.456;10.644;2022-12-05T18:28:24;3.80;99.90
30069;DHT22;16894;49.456;10.644;2022-12-05T18:30:50;3.80;99.90
30069;DHT22;16894;49.456;10.644;2022-12-05T18:33:16;3.80;99.90
30069;DHT22;16894;49.456;10.644;2022-12-05T18:35:41;3.80;99.90
30069;DHT22;16894;49.456;10.644;2022-12-05T18:38:09;3.80;99.90